PWSweather.com
Personal Weather Stations
Station Observations
OBERT
Bodensee Hinterland, OberteuringenDE

Bodensee HinterlandOberteuringenDE

Lat: 47.714675, Lon: 9.44447

Elevation: 1427

Station Type: Wunder Weather Station

High Low Average
Temperature 54.3°F12.4°C 37.7°F3.2°C 43.8°F6.6°C
Dew Point 51.9°F11.1°C -0.1°F-17.8°C 26.6°F-3.0°C
Winds 9.8 mph 15.8 kmh Calm Calm 1.0 mph E1.6 kmh E
Wind Gusts 15.3 mph24.6 kmh -- 2.0 mph3.2 kmh
Humidity 100% -3% 56%
Pressure 29.61 in1002.7 mb 29.48 in998.3 mb -
Precipitation 0.00 in0.0 mm - -
Hour Temp Dew Point Humidity Winds Wind Gusts Pressure Precip Precip Rate Daily Precip Total
12:01 AM 38.4°F3.6°C -0.1°F-17.8°C -2% Calm Calm -- 29.60 in1002.4 mb 0.00 in0.0 mm 0.00 in0.0 mm 0.00 in0.0 mm
12:31 AM 37.9°F3.3°C -0.1°F-17.8°C -3% Calm Calm -- 29.58 in1001.7 mb 0.00 in0.0 mm 0.00 in0.0 mm 0.00 in0.0 mm
01:01 AM 37.7°F3.2°C -0.1°F-17.8°C -2% Calm Calm -- 29.56 in1001.0 mb 0.00 in0.0 mm 0.00 in0.0 mm 0.00 in0.0 mm
01:31 AM 37.9°F3.3°C -0.1°F-17.8°C -3% Calm Calm -- 29.55 in1000.7 mb 0.00 in0.0 mm 0.00 in0.0 mm 0.00 in0.0 mm
02:01 AM 38.6°F3.7°C -0.1°F-17.8°C -3% Calm Calm -- 29.53 in1000.0 mb 0.00 in0.0 mm 0.00 in0.0 mm 0.00 in0.0 mm
02:31 AM 39.0°F3.9°C -0.1°F-17.8°C -3% 1.6 mph 2.6 kmh 5.6 mph9.0 kmh 29.52 in999.7 mb 0.00 in0.0 mm 0.00 in0.0 mm 0.00 in0.0 mm
03:01 AM 40.8°F4.9°C -0.1°F-17.8°C -1% 9.8 mph N15.8 kmh N 15.3 mph24.6 kmh 29.54 in1000.3 mb 0.00 in0.0 mm 0.00 in0.0 mm 0.00 in0.0 mm
03:31 AM 40.4°F4.7°C -0.1°F-17.8°C -1% 4.8 mph SW7.7 kmh SW 10.0 mph16.1 kmh 29.49 in998.6 mb 0.00 in0.0 mm 0.00 in0.0 mm 0.00 in0.0 mm
04:01 AM 39.7°F4.3°C -0.1°F-17.8°C -1% Calm Calm -- 29.51 in999.3 mb 0.00 in0.0 mm 0.00 in0.0 mm 0.00 in0.0 mm
04:13 AM 39.2°F4.0°C -0.1°F-17.8°C -1% 0.4 mph SW0.6 kmh SW 1.5 mph2.4 kmh 29.51 in999.3 mb 0.00 in0.0 mm 0.00 in0.0 mm 0.00 in0.0 mm
04:43 AM 38.1°F3.4°C -0.1°F-17.8°C -1% Calm Calm 1.5 mph2.4 kmh 29.51 in999.3 mb 0.00 in0.0 mm 0.00 in0.0 mm 0.00 in0.0 mm
05:13 AM 38.1°F3.4°C -0.1°F-17.8°C -2% 0.8 mph E1.3 kmh E 3.7 mph6.0 kmh 29.48 in998.3 mb 0.00 in0.0 mm 0.00 in0.0 mm 0.00 in0.0 mm
05:43 AM 38.3°F3.5°C -0.1°F-17.8°C -2% Calm Calm -- 29.50 in999.0 mb 0.00 in0.0 mm 0.00 in0.0 mm 0.00 in0.0 mm
06:13 AM 40.2°F4.6°C -0.1°F-17.8°C -1% 2.2 mph 3.5 kmh 8.7 mph14.0 kmh 29.52 in999.7 mb 0.00 in0.0 mm 0.00 in0.0 mm 0.00 in0.0 mm
06:43 AM 41.1°F5.1°C -0.1°F-17.8°C -1% Calm Calm 3.4 mph5.5 kmh 29.52 in999.7 mb 0.00 in0.0 mm 0.00 in0.0 mm 0.00 in0.0 mm
07:13 AM 41.5°F5.3°C -0.1°F-17.8°C -1% 2.3 mph 3.7 kmh 6.5 mph10.5 kmh 29.54 in1000.3 mb 0.00 in0.0 mm 0.00 in0.0 mm 0.00 in0.0 mm
07:43 AM 41.5°F5.3°C -0.1°F-17.8°C -1% Calm Calm -- 29.55 in1000.7 mb 0.00 in0.0 mm 0.00 in0.0 mm 0.00 in0.0 mm
08:13 AM 41.3°F5.2°C -0.1°F-17.8°C 0% Calm Calm -- 29.57 in1001.4 mb 0.00 in0.0 mm 0.00 in0.0 mm 0.00 in0.0 mm
08:43 AM 41.5°F5.3°C -0.1°F-17.8°C -1% Calm Calm -- 29.58 in1001.7 mb 0.00 in0.0 mm 0.00 in0.0 mm 0.00 in0.0 mm
09:13 AM 42.9°F6.1°C -0.1°F-17.8°C 0% Calm Calm 3.4 mph5.5 kmh 29.60 in1002.4 mb 0.00 in0.0 mm 0.00 in0.0 mm 0.00 in0.0 mm
09:43 AM 45.1°F7.3°C -0.1°F-17.8°C -3% 4.6 mph 7.4 kmh 9.6 mph15.4 kmh 29.61 in1002.7 mb 0.00 in0.0 mm 0.00 in0.0 mm 0.00 in0.0 mm
10:13 AM 46.4°F8.0°C 46.3°F7.9°C 100% Calm Calm 2.1 mph3.4 kmh 29.61 in1002.7 mb 0.00 in0.0 mm 0.00 in0.0 mm 0.00 in0.0 mm
10:43 AM 47.4°F8.6°C 47.4°F8.6°C 100% 0.1 mph N0.2 kmh N 2.5 mph4.0 kmh 29.60 in1002.4 mb 0.00 in0.0 mm 0.00 in0.0 mm 0.00 in0.0 mm
11:13 AM 48.3°F9.1°C 48.3°F9.1°C 100% Calm Calm -- 29.58 in1001.7 mb 0.00 in0.0 mm 0.00 in0.0 mm 0.00 in0.0 mm
11:43 AM 50.3°F10.2°C 50.3°F10.2°C 100% Calm Calm -- 29.57 in1001.4 mb 0.00 in0.0 mm 0.00 in0.0 mm 0.00 in0.0 mm
12:13 PM 51.0°F10.6°C 51.0°F10.6°C 100% Calm Calm -- 29.56 in1001.0 mb 0.00 in0.0 mm 0.00 in0.0 mm 0.00 in0.0 mm
12:43 PM 51.4°F10.8°C 51.4°F10.8°C 100% Calm Calm -- 29.55 in1000.7 mb 0.00 in0.0 mm 0.00 in0.0 mm 0.00 in0.0 mm
01:13 PM 50.7°F10.4°C 50.7°F10.4°C 100% Calm Calm -- 29.54 in1000.3 mb 0.00 in0.0 mm 0.00 in0.0 mm 0.00 in0.0 mm
01:43 PM 51.9°F11.1°C 51.9°F11.1°C 100% Calm Calm -- 29.54 in1000.3 mb 0.00 in0.0 mm 0.00 in0.0 mm 0.00 in0.0 mm
02:13 PM 52.5°F11.4°C 50.7°F10.4°C 93% 0.1 mph NNW0.2 kmh NNW 1.5 mph2.4 kmh 29.54 in1000.3 mb 0.00 in0.0 mm 0.00 in0.0 mm 0.00 in0.0 mm
02:43 PM 51.9°F11.1°C 50.2°F10.1°C 93% Calm Calm 4.3 mph6.9 kmh 29.54 in1000.3 mb 0.00 in0.0 mm 0.00 in0.0 mm 0.00 in0.0 mm
03:13 PM 54.3°F12.4°C 50.2°F10.1°C 85% Calm Calm 2.8 mph4.5 kmh 29.54 in1000.3 mb 0.00 in0.0 mm 0.00 in0.0 mm 0.00 in0.0 mm
03:43 PM 51.6°F10.9°C 48.6°F9.2°C 89% 3.4 mph 5.5 kmh 4.6 mph7.4 kmh 29.54 in1000.3 mb 0.00 in0.0 mm 0.00 in0.0 mm 0.00 in0.0 mm
04:13 PM 50.9°F10.5°C 47.8°F8.8°C 89% 4.3 mph N6.9 kmh N 6.8 mph10.9 kmh 29.54 in1000.3 mb 0.00 in0.0 mm 0.00 in0.0 mm 0.00 in0.0 mm
04:43 PM 49.2°F9.6°C 47.1°F8.4°C 92% 1.2 mph 1.9 kmh 6.5 mph10.5 kmh 29.54 in1000.3 mb 0.00 in0.0 mm 0.00 in0.0 mm 0.00 in0.0 mm
05:13 PM 48.3°F9.1°C 47.1°F8.4°C 95% Calm Calm 4.3 mph6.9 kmh 29.54 in1000.3 mb 0.00 in0.0 mm 0.00 in0.0 mm 0.00 in0.0 mm
05:43 PM 45.5°F7.5°C 45.5°F7.5°C 100% Calm Calm -- 29.55 in1000.7 mb 0.00 in0.0 mm 0.00 in0.0 mm 0.00 in0.0 mm
06:13 PM 45.1°F7.3°C 45.1°F7.3°C 100% Calm Calm -- 29.55 in1000.7 mb 0.00 in0.0 mm 0.00 in0.0 mm 0.00 in0.0 mm
06:43 PM 44.2°F6.8°C 44.2°F6.8°C 100% Calm Calm -- 29.56 in1001.0 mb 0.00 in0.0 mm 0.00 in0.0 mm 0.00 in0.0 mm
07:13 PM 44.0°F6.7°C 44.0°F6.7°C 100% Calm Calm -- 29.56 in1001.0 mb 0.00 in0.0 mm 0.00 in0.0 mm 0.00 in0.0 mm
07:43 PM 41.7°F5.4°C 41.7°F5.4°C 100% Calm Calm -- 29.57 in1001.4 mb 0.00 in0.0 mm 0.00 in0.0 mm 0.00 in0.0 mm
08:13 PM 41.0°F5.0°C 41.0°F5.0°C 100% Calm Calm -- 29.57 in1001.4 mb 0.00 in0.0 mm 0.00 in0.0 mm 0.00 in0.0 mm
08:43 PM 39.3°F4.1°C 39.3°F4.1°C 100% Calm Calm -- 29.57 in1001.4 mb 0.00 in0.0 mm 0.00 in0.0 mm 0.00 in0.0 mm
09:13 PM 40.4°F4.7°C 40.4°F4.7°C 100% Calm Calm -- 29.58 in1001.7 mb 0.00 in0.0 mm 0.00 in0.0 mm 0.00 in0.0 mm
09:43 PM 40.8°F4.9°C 40.8°F4.9°C 100% Calm Calm -- 29.57 in1001.4 mb 0.00 in0.0 mm 0.00 in0.0 mm 0.00 in0.0 mm
10:13 PM 39.9°F4.4°C 39.9°F4.4°C 100% Calm Calm -- 29.57 in1001.4 mb 0.00 in0.0 mm 0.00 in0.0 mm 0.00 in0.0 mm
10:25 PM 39.5°F4.2°C 39.5°F4.2°C 100% Calm Calm -- 29.57 in1001.4 mb 0.00 in0.0 mm 0.00 in0.0 mm 0.00 in0.0 mm
10:55 PM 38.8°F3.8°C 38.8°F3.8°C 100% Calm Calm -- 29.57 in1001.4 mb 0.00 in0.0 mm 0.00 in0.0 mm 0.00 in0.0 mm
11:25 PM 46.9°F8.3°C 46.5°F8.1°C 98% 1.2 mph 1.9 kmh 8.4 mph13.5 kmh 29.58 in1001.7 mb 0.00 in0.0 mm 0.00 in0.0 mm 0.00 in0.0 mm
11:55 PM 47.6°F8.7°C 46.2°F7.9°C 94% 2.2 mph 3.5 kmh 8.7 mph14.0 kmh 29.58 in1001.7 mb 0.00 in0.0 mm 0.00 in0.0 mm 0.00 in0.0 mm